Time;durP1;ratioP1;P1;durP2;ratioP2;P2;SDS_P1;SDS_P2;PMS_P1;PMS_P2;Temp;Humidity;BMP_temperature;BMP_pressure;BME280_temperature;BME280_humidity;BME280_pressure;Samples;Min_cycle;Max_cycle;Signal;HPM_P1;HPM_P2
2022/03/28 00:00:05;;;;;;;14.97;6.60;;;10.40;99.90;;;;;;5094275;28;20456;-70
2022/03/28 00:02:32;;;;;;;10.87;5.33;;;10.20;99.90;;;;;;5088388;28;21138;-70
2022/03/28 00:05:00;;;;;;;16.50;7.07;;;10.30;99.90;;;;;;5097288;28;20450;-69
2022/03/28 00:07:27;;;;;;;9.87;6.60;;;10.30;99.90;;;;;;5092478;28;20458;-69
2022/03/28 00:09:53;;;;;;;10.30;5.13;;;10.30;99.90;;;;;;5096997;27;20452;-70
2022/03/28 00:12:20;;;;;;;15.60;8.40;;;10.30;99.90;;;;;;5100089;27;20483;-71
2022/03/28 00:14:47;;;;;;;17.03;6.33;;;10.20;99.90;;;;;;5094997;27;20997;-71
2022/03/28 00:17:14;;;;;;;15.40;9.07;;;10.10;99.90;;;;;;5098270;27;20509;-70
2022/03/28 00:19:41;;;;;;;15.47;5.10;;;10.10;99.90;;;;;;5095179;27;20468;-71
2022/03/28 00:22:09;;;;;;;14.00;7.27;;;10.00;99.90;;;;;;5083258;28;20468;-72
2022/03/28 00:24:35;;;;;;;13.13;6.27;;;10.00;99.90;;;;;;5089676;28;20457;-72
2022/03/28 00:27:02;;;;;;;11.80;5.50;;;10.00;99.90;;;;;;5095263;27;20449;-73
2022/03/28 00:29:29;;;;;;;15.70;7.80;;;10.00;99.90;;;;;;5095181;27;20461;-72
2022/03/28 00:31:56;;;;;;;14.73;6.67;;;9.90;99.90;;;;;;5094106;27;20558;-71
2022/03/28 00:34:23;;;;;;;9.73;5.87;;;10.00;99.90;;;;;;5094257;28;20466;-71
2022/03/28 00:36:50;;;;;;;16.13;6.53;;;9.90;99.90;;;;;;5091745;27;20488;-73
2022/03/28 00:39:19;;;;;;;10.93;6.50;;;9.80;99.90;;;;;;5095211;28;20476;-71
2022/03/28 00:41:47;;;;;;;15.23;7.97;;;9.80;99.90;;;;;;5086408;27;21075;-72
2022/03/28 00:44:13;;;;;;;6.60;4.47;;;9.80;99.90;;;;;;5081313;28;20950;-73
2022/03/28 00:46:40;;;;;;;12.50;6.30;;;9.80;99.90;;;;;;5096728;27;20462;-72
2022/03/28 00:49:07;;;;;;;12.73;6.60;;;9.70;99.90;;;;;;5095618;27;20434;-72
2022/03/28 00:51:34;;;;;;;12.70;6.33;;;9.60;99.90;;;;;;5092986;27;20476;-71
2022/03/28 00:54:01;;;;;;;12.40;7.20;;;9.70;99.90;;;;;;5102324;27;20461;-72
2022/03/28 00:56:30;;;;;;;11.90;6.20;;;9.60;99.90;;;;;;5095782;27;20869;-72
2022/03/28 00:58:58;;;;;;;14.10;6.07;;;9.60;99.90;;;;;;5093129;28;20457;-72
2022/03/28 01:01:26;;;;;;;11.63;7.00;;;9.10;99.90;;;;;;5094804;27;20441;-71
2022/03/28 01:03:53;;;;;;;10.90;6.43;;;8.60;99.90;;;;;;5096553;27;20559;-71
2022/03/28 01:06:20;;;;;;;13.77;6.37;;;8.60;99.90;;;;;;5103574;27;20453;-72
2022/03/28 01:08:47;;;;;;;14.80;6.97;;;8.80;99.90;;;;;;5094891;27;22314;-73
2022/03/28 01:11:13;;;;;;;12.97;8.17;;;9.00;99.90;;;;;;5089512;27;20455;-72
2022/03/28 01:13:42;;;;;;;15.73;7.20;;;9.20;99.90;;;;;;5077124;28;20454;-71
2022/03/28 01:16:09;;;;;;;13.80;6.67;;;9.30;99.90;;;;;;5067708;27;25181;-72
2022/03/28 01:18:35;;;;;;;13.50;4.97;;;9.20;99.90;;;;;;5086895;28;20881;-72
2022/03/28 01:21:04;;;;;;;12.67;7.73;;;9.00;99.90;;;;;;5101720;28;20510;-73
2022/03/28 01:23:31;;;;;;;19.30;6.10;;;8.70;99.90;;;;;;5091168;28;20244;-73
2022/03/28 01:25:58;;;;;;;15.53;6.93;;;8.90;99.90;;;;;;5074603;28;21192;-70
2022/03/28 01:28:27;;;;;;;9.90;5.57;;;8.80;99.90;;;;;;5086440;28;20423;-71
2022/03/28 01:30:55;;;;;;;19.83;7.70;;;8.80;99.90;;;;;;5082123;28;20511;-71
2022/03/28 01:33:22;;;;;;;17.70;7.53;;;8.80;99.90;;;;;;5087993;27;20467;-70
2022/03/28 01:35:49;;;;;;;17.10;7.70;;;8.90;99.90;;;;;;5074497;28;20561;-70
2022/03/28 01:38:19;;;;;;;16.10;6.97;;;9.00;99.90;;;;;;5079511;28;20460;-70
2022/03/28 01:40:48;;;;;;;28.67;8.43;;;9.00;99.90;;;;;;5088277;27;20447;-71
2022/03/28 01:43:15;;;;;;;16.30;8.30;;;9.00;99.90;;;;;;5090633;27;20464;-70
2022/03/28 01:45:42;;;;;;;24.57;8.03;;;8.90;99.90;;;;;;5090963;27;20514;-72
2022/03/28 01:48:09;;;;;;;23.87;7.90;;;8.90;99.90;;;;;;5089431;27;20462;-70
2022/03/28 01:50:37;;;;;;;14.93;7.57;;;8.80;99.90;;;;;;5086508;27;20484;-71
2022/03/28 01:53:04;;;;;;;19.23;9.20;;;8.70;99.90;;;;;;5092955;27;20451;-70
2022/03/28 01:55:33;;;;;;;16.23;6.30;;;8.70;99.90;;;;;;5087363;27;20439;-70
2022/03/28 01:57:59;;;;;;;23.00;7.70;;;8.80;99.90;;;;;;5089684;27;20453;-70
2022/03/28 02:00:28;;;;;;;16.13;7.63;;;8.70;99.90;;;;;;5091523;27;20900;-69
2022/03/28 02:02:56;;;;;;;17.53;6.93;;;8.70;99.90;;;;;;5090729;27;20457;-70
2022/03/28 02:05:23;;;;;;;19.43;7.27;;;8.70;99.90;;;;;;5092843;28;20539;-70
2022/03/28 02:07:50;;;;;;;14.03;6.43;;;8.70;99.90;;;;;;5093349;27;20464;-70
2022/03/28 02:10:19;;;;;;;11.43;6.57;;;8.80;99.90;;;;;;5091609;28;20949;-71
2022/03/28 02:12:48;;;;;;;21.90;8.47;;;8.80;99.90;;;;;;5093613;28;20459;-69
2022/03/28 02:15:16;;;;;;;18.83;8.27;;;8.80;99.90;;;;;;5099506;27;20419;-71
2022/03/28 02:17:42;;;;;;;15.63;7.27;;;8.80;99.90;;;;;;5093833;27;20459;-71
2022/03/28 02:20:11;;;;;;;16.67;8.07;;;8.70;99.90;;;;;;5088892;27;20435;-72
2022/03/28 02:22:41;;;;;;;12.73;7.03;;;8.70;99.90;;;;;;5092895;27;20481;-71
2022/03/28 02:25:10;;;;;;;25.33;8.50;;;8.60;99.90;;;;;;5089964;28;20518;-71
2022/03/28 02:27:37;;;;;;;12.57;6.53;;;8.60;99.90;;;;;;5092937;27;20431;-71
2022/03/28 02:30:07;;;;;;;15.03;9.70;;;8.40;99.90;;;;;;5094439;27;20464;-70
2022/03/28 02:32:34;;;;;;;12.80;4.53;;;8.30;99.90;;;;;;5091331;27;20573;-70
2022/03/28 02:35:00;;;;;;;13.70;7.90;;;8.30;99.90;;;;;;5094849;27;20439;-70
2022/03/28 02:37:27;;;;;;;11.97;5.90;;;8.40;99.90;;;;;;5085238;28;20566;-70
2022/03/28 02:39:54;;;;;;;18.53;8.70;;;8.40;99.90;;;;;;5093487;27;20579;-69
2022/03/28 02:42:22;;;;;;;19.90;8.63;;;8.30;99.90;;;;;;5076007;27;20602;-70
2022/03/28 02:44:49;;;;;;;21.93;6.40;;;8.30;99.90;;;;;;5096175;27;20954;-70
2022/03/28 02:47:18;;;;;;;15.70;7.33;;;8.30;99.90;;;;;;5086058;27;20431;-70
2022/03/28 02:49:45;;;;;;;16.37;7.93;;;8.40;99.90;;;;;;5083239;27;20817;-71
2022/03/28 02:52:12;;;;;;;12.97;6.50;;;8.40;99.90;;;;;;5091140;27;20536;-70
2022/03/28 02:54:38;;;;;;;19.40;11.00;;;8.40;99.90;;;;;;5081848;28;20784;-69
2022/03/28 02:57:05;;;;;;;16.33;7.00;;;8.40;99.90;;;;;;5089229;27;20432;-70
2022/03/28 02:59:32;;;;;;;14.67;7.00;;;8.40;99.90;;;;;;5085593;28;24361;-70
2022/03/28 03:02:00;;;;;;;12.47;7.20;;;8.30;99.90;;;;;;5092900;27;20443;-70
2022/03/28 03:04:28;;;;;;;13.10;8.40;;;8.10;99.90;;;;;;5079348;28;20940;-70
2022/03/28 03:06:54;;;;;;;23.77;6.77;;;8.20;99.90;;;;;;5091979;27;20435;-69
2022/03/28 03:09:21;;;;;;;15.43;5.97;;;8.20;99.90;;;;;;5092355;28;20472;-76
2022/03/28 03:11:48;;;;;;;14.17;6.77;;;8.10;99.90;;;;;;5089907;27;20484;-71
2022/03/28 03:14:14;;;;;;;15.80;7.47;;;8.00;99.90;;;;;;5093169;28;21074;-71
2022/03/28 03:16:41;;;;;;;13.13;6.23;;;8.10;99.90;;;;;;5090299;27;20437;-71
2022/03/28 03:19:09;;;;;;;12.67;7.13;;;8.10;99.90;;;;;;5079138;27;20485;-71
2022/03/28 03:21:38;;;;;;;14.57;7.10;;;7.70;99.90;;;;;;5091464;28;20500;-71
2022/03/28 03:24:06;;;;;;;14.30;7.50;;;7.50;99.90;;;;;;5089422;28;20441;-70
2022/03/28 03:26:32;;;;;;;10.37;5.80;;;7.50;99.90;;;;;;5094037;28;20438;-70
2022/03/28 03:28:59;;;;;;;20.30;8.90;;;7.50;99.90;;;;;;5101667;27;20919;-70
2022/03/28 03:31:26;;;;;;;13.90;6.50;;;7.60;99.90;;;;;;5085962;28;20439;-71
2022/03/28 03:33:53;;;;;;;16.90;8.17;;;7.80;99.90;;;;;;5093210;28;20480;-69
2022/03/28 03:36:19;;;;;;;11.00;6.70;;;7.80;99.90;;;;;;5083194;28;20516;-69
2022/03/28 03:38:48;;;;;;;13.23;8.20;;;7.70;99.90;;;;;;5088285;28;20471;-71
2022/03/28 03:41:14;;;;;;;18.67;6.50;;;7.70;99.90;;;;;;5083006;28;20520;-69
2022/03/28 03:43:41;;;;;;;13.33;5.97;;;7.80;99.90;;;;;;5093906;28;20426;-70
2022/03/28 03:46:08;;;;;;;14.20;7.07;;;7.80;99.90;;;;;;5095233;28;20797;-69
2022/03/28 03:48:34;;;;;;;16.30;6.50;;;7.80;99.90;;;;;;5078540;28;20951;-70
2022/03/28 03:51:03;;;;;;;14.03;6.77;;;7.80;99.90;;;;;;5094447;28;20466;-69
2022/03/28 03:53:30;;;;;;;13.50;6.90;;;7.70;99.90;;;;;;5086082;28;20467;-70
2022/03/28 03:55:59;;;;;;;17.90;8.20;;;7.60;99.90;;;;;;5089835;28;20464;-69
2022/03/28 03:58:26;;;;;;;16.93;6.30;;;7.60;99.90;;;;;;5092046;28;20476;-70
2022/03/28 04:00:53;;;;;;;17.60;6.97;;;7.70;99.90;;;;;;5091282;28;20418;-70
2022/03/28 04:03:19;;;;;;;19.73;7.83;;;7.70;99.90;;;;;;5096385;28;20451;-70
2022/03/28 04:05:46;;;;;;;27.83;7.23;;;7.60;99.90;;;;;;5089706;28;20519;-70
2022/03/28 04:08:13;;;;;;;18.77;7.90;;;7.60;99.90;;;;;;5093578;28;20939;-69
2022/03/28 04:10:42;;;;;;;25.97;7.23;;;7.50;99.90;;;;;;5097499;28;20816;-70
2022/03/28 04:13:12;;;;;;;20.40;8.27;;;7.50;99.90;;;;;;5094650;28;21045;-69
2022/03/28 04:15:38;;;;;;;15.20;8.77;;;7.40;99.90;;;;;;5097806;28;20870;-69
2022/03/28 04:18:05;;;;;;;20.23;6.90;;;7.30;99.90;;;;;;5094755;28;20426;-70
2022/03/28 04:20:32;;;;;;;26.63;7.03;;;7.10;99.90;;;;;;5092146;28;20440;-71
2022/03/28 04:22:59;;;;;;;14.57;7.83;;;7.30;99.90;;;;;;5096470;28;20509;-71
2022/03/28 04:25:26;;;;;;;15.63;6.77;;;7.30;99.90;;;;;;5092664;28;20951;-71
2022/03/28 04:27:52;;;;;;;13.83;7.60;;;7.20;99.90;;;;;;5094641;28;20427;-70
2022/03/28 04:30:21;;;;;;;15.03;8.80;;;7.10;99.90;;;;;;5086038;28;20521;-70
2022/03/28 04:32:47;;;;;;;8.63;6.37;;;7.10;99.90;;;;;;5091558;28;20497;-70
2022/03/28 04:35:15;;;;;;;13.67;7.93;;;7.20;99.90;;;;;;5100553;28;20489;-70
2022/03/28 04:37:44;;;;;;;23.07;8.40;;;7.20;99.90;;;;;;5085999;28;20514;-72
2022/03/28 04:40:13;;;;;;;22.60;7.67;;;7.30;99.90;;;;;;5097365;28;20454;-70
2022/03/28 04:42:40;;;;;;;20.10;8.43;;;7.30;99.90;;;;;;5092439;28;20469;-70
2022/03/28 04:45:08;;;;;;;26.20;9.90;;;7.30;99.90;;;;;;5089845;28;20464;-70
2022/03/28 04:47:37;;;;;;;13.27;6.47;;;7.40;99.90;;;;;;5095062;28;20502;-69
2022/03/28 04:50:05;;;;;;;34.77;8.97;;;7.30;99.90;;;;;;5100829;28;20510;-68
2022/03/28 04:52:32;;;;;;;14.83;8.60;;;7.10;99.90;;;;;;5101702;27;20470;-69
2022/03/28 04:54:59;;;;;;;13.27;7.00;;;7.00;99.90;;;;;;5109438;27;20417;-70
2022/03/28 04:57:26;;;;;;;27.30;10.10;;;7.10;99.90;;;;;;5105610;27;20792;-71
2022/03/28 04:59:52;;;;;;;16.43;7.30;;;7.10;99.90;;;;;;5097237;27;20465;-68
2022/03/28 05:02:20;;;;;;;8.97;5.77;;;7.00;99.90;;;;;;5096855;27;20872;-70
2022/03/28 05:04:48;;;;;;;18.13;7.50;;;6.80;99.90;;;;;;5089848;27;20561;-71
2022/03/28 05:07:23;;;;;;;11.80;7.70;;;6.90;99.90;;;;;;5094376;28;20440;-69
2022/03/28 05:09:50;;;;;;;20.07;7.93;;;7.00;99.90;;;;;;5092584;28;20450;-70
2022/03/28 05:12:16;;;;;;;33.13;9.77;;;6.90;99.90;;;;;;5102732;27;20473;-70
2022/03/28 05:14:43;;;;;;;25.73;9.90;;;7.00;99.90;;;;;;5096285;28;20974;-70
2022/03/28 05:17:09;;;;;;;20.40;9.10;;;6.90;99.90;;;;;;5090880;28;20510;-70
2022/03/28 05:19:36;;;;;;;19.13;7.67;;;7.10;99.90;;;;;;5097847;27;20768;-70
2022/03/28 05:22:05;;;;;;;30.10;9.00;;;7.20;99.90;;;;;;5101578;27;20949;-70
2022/03/28 05:24:31;;;;;;;41.37;8.73;;;7.10;99.90;;;;;;5103044;27;20450;-71
2022/03/28 05:26:58;;;;;;;16.27;7.37;;;7.20;99.90;;;;;;5097980;27;20428;-70
2022/03/28 05:29:25;;;;;;;14.30;7.10;;;7.20;99.90;;;;;;5101041;27;20528;-70
2022/03/28 05:31:52;;;;;;;23.23;7.83;;;7.20;99.90;;;;;;5094994;27;20469;-70
2022/03/28 05:34:30;;;;;;;16.03;6.43;;;7.20;99.90;;;;;;5097239;27;20934;-69
2022/03/28 05:36:57;;;;;;;21.03;8.10;;;7.20;99.90;;;;;;5100025;27;20432;-68
2022/03/28 05:39:25;;;;;;;18.90;7.03;;;7.20;99.90;;;;;;5097193;27;20435;-69
2022/03/28 05:41:52;;;;;;;15.40;7.97;;;7.20;99.90;;;;;;5102645;27;20508;-70
2022/03/28 05:44:19;;;;;;;15.27;8.00;;;7.20;99.90;;;;;;5098229;27;20421;-70
2022/03/28 05:46:45;;;;;;;29.03;10.23;;;7.20;99.90;;;;;;5091999;28;20528;-71
2022/03/28 05:49:12;;;;;;;15.53;8.60;;;7.20;99.90;;;;;;5101341;27;20453;-71
2022/03/28 05:51:38;;;;;;;20.50;9.37;;;7.10;99.90;;;;;;5099543;27;20546;-70
2022/03/28 05:54:05;;;;;;;10.80;8.30;;;7.30;99.90;;;;;;5097132;28;20555;-70
2022/03/28 05:56:33;;;;;;;25.77;9.20;;;7.40;99.90;;;;;;5086521;27;20835;-71
2022/03/28 05:59:02;;;;;;;17.13;9.60;;;7.20;99.90;;;;;;5105128;27;20465;-71
2022/03/28 06:01:29;;;;;;;26.17;7.87;;;7.10;99.90;;;;;;5094637;28;20920;-69
2022/03/28 06:03:56;;;;;;;31.43;11.90;;;7.20;99.90;;;;;;5102550;28;20437;-70
2022/03/28 06:06:23;;;;;;;26.10;8.37;;;7.70;99.90;;;;;;5092450;27;21193;-69
2022/03/28 06:08:50;;;;;;;21.30;7.20;;;8.10;99.90;;;;;;5092708;27;20665;-68
2022/03/28 06:11:18;;;;;;;44.53;11.60;;;8.40;99.90;;;;;;5092285;28;20448;-69
2022/03/28 06:13:46;;;;;;;23.93;10.13;;;8.50;99.90;;;;;;5086706;27;20488;-70
2022/03/28 06:16:13;;;;;;;33.87;10.00;;;8.70;99.90;;;;;;5098719;27;20460;-70
2022/03/28 06:18:39;;;;;;;24.87;11.00;;;8.90;99.90;;;;;;5099397;27;20445;-70
2022/03/28 06:21:07;;;;;;;29.63;10.50;;;9.10;99.90;;;;;;5093189;27;20515;-70
2022/03/28 06:23:34;;;;;;;70.20;11.10;;;9.20;99.90;;;;;;5096798;27;20474;-71
2022/03/28 06:26:03;;;;;;;60.67;10.30;;;9.10;99.90;;;;;;5092752;27;20456;-70
2022/03/28 06:28:29;;;;;;;30.77;9.73;;;9.30;99.90;;;;;;5100573;27;20449;-68
2022/03/28 06:30:57;;;;;;;49.53;9.63;;;9.40;99.90;;;;;;5099058;28;20453;-70
2022/03/28 06:33:25;;;;;;;35.93;10.50;;;9.30;99.90;;;;;;5090989;27;20631;-70
2022/03/28 06:35:52;;;;;;;33.07;9.30;;;9.10;99.90;;;;;;5097140;28;20529;-69
2022/03/28 06:38:19;;;;;;;34.57;9.83;;;8.90;99.90;;;;;;5092564;27;20824;-68
2022/03/28 06:40:46;;;;;;;32.57;9.17;;;9.20;99.90;;;;;;5090818;28;20458;-68
2022/03/28 06:43:12;;;;;;;36.20;10.13;;;9.40;99.90;;;;;;5092886;27;20481;-69
2022/03/28 06:45:39;;;;;;;21.10;9.77;;;9.50;99.90;;;;;;5092130;28;20961;-69
2022/03/28 06:48:07;;;;;;;43.30;9.40;;;9.60;99.90;;;;;;5096455;27;20465;-70
2022/03/28 06:50:34;;;;;;;22.00;9.70;;;9.90;99.90;;;;;;5102513;27;20462;-70
2022/03/28 06:53:01;;;;;;;23.80;9.67;;;10.10;99.90;;;;;;5103995;27;20481;-70
2022/03/28 06:55:28;;;;;;;26.40;10.00;;;10.50;99.90;;;;;;5103050;28;20529;-70
2022/03/28 06:57:55;;;;;;;23.90;10.17;;;10.90;99.90;;;;;;5100301;28;21204;-70
2022/03/28 07:00:22;;;;;;;18.33;9.90;;;11.60;99.90;;;;;;5101872;27;20462;-69
2022/03/28 07:02:50;;;;;;;27.07;12.50;;;12.20;99.90;;;;;;5107030;22;20525;-81
2022/03/28 07:05:18;;;;;;;17.80;8.97;;;12.60;99.90;;;;;;5067956;23;20488;-70
2022/03/28 07:07:46;;;;;;;27.47;10.37;;;13.00;99.90;;;;;;5076264;28;20506;-69
2022/03/28 07:10:15;;;;;;;32.80;10.90;;;12.90;99.90;;;;;;5077278;28;20803;-69
2022/03/28 07:12:42;;;;;;;29.67;11.40;;;13.30;99.90;;;;;;5072347;28;20998;-69
2022/03/28 07:15:11;;;;;;;20.00;9.40;;;13.70;99.90;;;;;;5079490;28;21973;-69
2022/03/28 07:17:48;;;;;;;24.07;11.17;;;13.80;99.90;;;;;;5078492;28;20454;-69
2022/03/28 07:20:17;;;;;;;16.93;9.47;;;13.50;99.90;;;;;;5078365;28;20449;-69
2022/03/28 07:22:45;;;;;;;24.17;9.07;;;13.50;99.90;;;;;;5075447;28;20460;-70
2022/03/28 07:25:11;;;;;;;26.10;11.77;;;13.80;99.90;;;;;;5098520;28;20481;-69
2022/03/28 07:27:39;;;;;;;22.63;10.80;;;13.80;99.90;;;;;;5099320;28;21018;-68
2022/03/28 07:30:07;;;;;;;22.73;11.00;;;13.50;99.90;;;;;;5090656;28;20449;-68
2022/03/28 07:32:34;;;;;;;30.13;11.03;;;13.70;99.90;;;;;;5088871;28;20461;-69
2022/03/28 07:35:01;;;;;;;25.77;12.00;;;13.70;99.90;;;;;;5100055;28;20553;-68
2022/03/28 07:37:27;;;;;;;23.10;11.57;;;13.80;99.90;;;;;;5103400;28;20492;-68
2022/03/28 07:39:55;;;;;;;22.20;9.40;;;13.80;99.90;;;;;;5098062;28;20547;-69
2022/03/28 07:42:22;;;;;;;24.40;12.00;;;13.90;99.90;;;;;;5100213;28;20452;-69
2022/03/28 07:44:49;;;;;;;30.13;12.70;;;14.20;99.90;;;;;;5101697;28;20464;-69
2022/03/28 07:47:16;;;;;;;17.73;10.10;;;14.30;99.90;;;;;;5101050;28;20435;-69
2022/03/28 07:49:42;;;;;;;19.20;10.40;;;14.60;99.90;;;;;;5104253;28;20609;-69
2022/03/28 07:52:09;;;;;;;19.13;11.33;;;14.80;99.90;;;;;;5099375;28;20446;-69
2022/03/28 07:54:36;;;;;;;27.87;14.80;;;14.80;99.90;;;;;;5103095;28;20980;-68
2022/03/28 07:57:05;;;;;;;25.03;12.20;;;15.00;99.90;;;;;;5099997;28;20464;-68
2022/03/28 07:59:32;;;;;;;24.37;13.90;;;15.00;99.90;;;;;;5101834;28;20938;-69
2022/03/28 08:01:59;;;;;;;22.20;13.17;;;15.70;99.90;;;;;;5096107;28;20460;-69
2022/03/28 08:04:26;;;;;;;31.30;12.60;;;16.10;99.90;;;;;;5099596;28;21092;-69
2022/03/28 08:06:52;;;;;;;44.70;11.90;;;16.00;99.90;;;;;;5096917;28;20452;-69
2022/03/28 08:09:19;;;;;;;23.37;12.97;;;16.10;99.90;;;;;;5097410;28;20867;-69
2022/03/28 08:11:46;;;;;;;30.00;15.77;;;15.90;99.90;;;;;;5100537;28;20449;-69
2022/03/28 08:14:14;;;;;;;23.23;14.23;;;16.90;99.90;;;;;;5102005;28;20533;-69
2022/03/28 08:16:40;;;;;;;24.90;12.50;;;17.20;99.90;;;;;;5102583;28;20449;-69
2022/03/28 08:19:07;;;;;;;23.67;13.20;;;16.50;99.90;;;;;;5103020;28;20536;-69
2022/03/28 08:21:34;;;;;;;35.40;13.73;;;16.60;99.90;;;;;;5099971;28;21025;-69
2022/03/28 08:24:00;;;;;;;29.47;15.17;;;17.80;99.90;;;;;;5104301;28;20826;-69
2022/03/28 08:26:27;;;;;;;28.40;15.63;;;18.80;99.90;;;;;;5107034;27;20438;-69
2022/03/28 08:28:54;;;;;;;25.40;13.53;;;20.00;99.90;;;;;;5109479;27;20786;-69
2022/03/28 08:31:22;;;;;;;30.83;14.20;;;20.90;99.90;;;;;;5096457;28;20513;-69
2022/03/28 08:33:48;;;;;;;26.03;13.57;;;21.00;99.90;;;;;;5105298;28;20545;-69
2022/03/28 08:36:15;;;;;;;22.97;13.17;;;21.30;99.90;;;;;;5101517;28;20457;-69
2022/03/28 08:38:41;;;;;;;28.60;15.87;;;22.00;99.90;;;;;;5096738;27;20453;-69
2022/03/28 08:41:13;;;;;;;28.90;15.87;;;22.60;99.00;;;;;;5098867;27;20808;-69
2022/03/28 08:43:41;;;;;;;25.13;14.23;;;22.50;98.60;;;;;;5106533;27;21028;-69
2022/03/28 08:46:09;;;;;;;25.83;14.63;;;22.60;98.40;;;;;;5095849;28;20471;-69
2022/03/28 08:48:40;;;;;;;22.50;13.53;;;22.50;98.10;;;;;;5099883;27;20498;-68
2022/03/28 08:51:07;;;;;;;23.20;12.20;;;21.90;98.50;;;;;;5095643;27;20654;-68
2022/03/28 08:53:34;;;;;;;24.53;13.53;;;21.80;98.80;;;;;;5095527;27;20484;-68
2022/03/28 08:56:01;;;;;;;28.00;13.33;;;21.30;98.50;;;;;;5094737;28;20545;-68
2022/03/28 08:58:28;;;;;;;27.03;14.33;;;20.60;99.90;;;;;;5094122;28;20456;-68
2022/03/28 09:00:55;;;;;;;27.30;14.70;;;20.80;99.90;;;;;;5099849;27;20441;-69
2022/03/28 09:03:37;;;;;;;25.60;13.70;;;22.10;99.90;;;;;;5090848;28;21059;-69
2022/03/28 09:06:31;;;;;;;25.47;13.37;;;22.50;98.80;;;;;;5098845;28;20448;-68
2022/03/28 09:09:10;;;;;;;22.80;14.00;;;23.50;98.80;;;;;;5098465;27;21101;-69
2022/03/28 09:11:37;;;;;;;23.03;14.07;;;23.30;96.50;;;;;;5101919;28;20622;-68
2022/03/28 09:14:03;;;;;;;22.33;16.30;;;23.30;95.70;;;;;;5096834;27;20958;-69
2022/03/28 09:16:34;;;;;;;24.63;13.70;;;24.00;95.90;;;;;;5097952;28;20738;-69
2022/03/28 09:19:09;;;;;;;23.60;13.03;;;24.60;94.70;;;;;;5098578;27;20546;-69
2022/03/28 09:21:36;;;;;;;24.53;16.30;;;25.40;93.20;;;;;;5097691;27;20456;-69
2022/03/28 09:24:05;;;;;;;32.57;16.07;;;25.10;92.10;;;;;;5101722;28;20460;-69
2022/03/28 09:26:31;;;;;;;19.87;13.77;;;24.30;92.60;;;;;;5104852;27;20462;-68
2022/03/28 09:29:00;;;;;;;27.07;14.27;;;24.50;91.00;;;;;;5102228;28;20773;-69
2022/03/28 09:31:30;;;;;;;22.50;14.70;;;24.50;93.10;;;;;;5102356;27;20453;-69
2022/03/28 09:34:04;;;;;;;27.90;14.63;;;24.20;91.70;;;;;;5102769;28;20496;-70
2022/03/28 09:36:47;;;;;;;23.07;15.27;;;24.80;92.20;;;;;;5086488;28;20885;-71
2022/03/28 09:39:17;;;;;;;25.87;14.80;;;25.00;91.80;;;;;;5102210;28;20457;-70
2022/03/28 09:41:45;;;;;;;28.77;13.50;;;24.00;91.00;;;;;;5101392;28;20449;-70
2022/03/28 09:44:12;;;;;;;24.27;14.70;;;24.80;91.70;;;;;;5096466;28;21295;-70
2022/03/28 09:46:39;;;;;;;23.20;15.37;;;25.20;90.80;;;;;;5101946;28;20925;-71
2022/03/28 09:49:08;;;;;;;25.47;15.60;;;25.50;89.40;;;;;;5107530;27;20457;-68
2022/03/28 09:51:36;;;;;;;21.70;14.90;;;25.30;89.80;;;;;;5097433;28;20540;-70
2022/03/28 09:54:03;;;;;;;27.47;16.20;;;25.00;89.70;;;;;;5103188;27;20517;-70
2022/03/28 09:56:30;;;;;;;27.40;13.30;;;24.10;90.20;;;;;;5097531;28;20448;-71
2022/03/28 09:58:59;;;;;;;26.07;14.43;;;24.60;90.00;;;;;;5101218;27;20503;-70
2022/03/28 10:01:29;;;;;;;20.30;12.23;;;24.80;90.50;;;;;;5097607;27;20557;-70
2022/03/28 10:03:58;;;;;;;32.57;14.53;;;25.40;87.70;;;;;;5095630;27;20473;-71
2022/03/28 10:06:26;;;;;;;26.37;15.60;;;25.80;87.50;;;;;;5098388;28;20449;-70
2022/03/28 10:08:53;;;;;;;24.90;14.43;;;25.80;86.20;;;;;;5096734;27;20454;-70
2022/03/28 10:11:20;;;;;;;22.73;13.10;;;26.70;82.80;;;;;;5090454;28;20450;-68
2022/03/28 10:13:47;;;;;;;23.53;13.47;;;26.60;80.00;;;;;;5093498;27;20531;-68
2022/03/28 10:16:14;;;;;;;23.00;14.20;;;27.10;80.90;;;;;;5098341;28;20466;-68
2022/03/28 10:18:44;;;;;;;24.77;16.20;;;27.70;78.40;;;;;;5093079;28;20456;-70
2022/03/28 10:21:16;;;;;;;24.47;15.30;;;27.80;77.20;;;;;;5097687;28;20453;-69
2022/03/28 10:23:50;;;;;;;23.33;12.50;;;27.70;76.70;;;;;;5096977;27;20476;-69
2022/03/28 10:26:19;;;;;;;20.33;12.33;;;27.40;74.10;;;;;;5094165;27;20446;-70
2022/03/28 10:29:01;;;;;;;21.27;14.07;;;27.80;75.10;;;;;;5089941;28;20510;-70
2022/03/28 10:31:30;;;;;;;21.03;13.97;;;27.90;74.00;;;;;;5098977;28;20552;-69
2022/03/28 10:33:57;;;;;;;20.30;12.57;;;27.70;72.50;;;;;;5092748;28;20543;-69
2022/03/28 10:36:27;;;;;;;21.87;14.47;;;27.70;72.20;;;;;;5092793;27;20560;-70
2022/03/28 10:39:16;;;;;;;24.20;14.40;;;27.00;71.50;;;;;;5094281;28;20449;-69
2022/03/28 10:41:43;;;;;;;24.10;15.37;;;26.60;73.40;;;;;;5096762;27;20945;-70
2022/03/28 10:44:09;;;;;;;28.57;16.10;;;26.90;73.30;;;;;;5100839;27;20518;-69
2022/03/28 10:46:36;;;;;;;23.47;13.50;;;27.10;73.30;;;;;;5095123;28;20514;-69
2022/03/28 10:49:06;;;;;;;24.67;14.87;;;26.80;71.50;;;;;;5098962;28;20831;-70
2022/03/28 10:51:32;;;;;;;28.07;14.90;;;27.80;72.00;;;;;;5096875;28;20929;-69
2022/03/28 10:54:03;;;;;;;20.23;13.27;;;28.10;68.80;;;;;;5097088;28;20521;-69
2022/03/28 10:56:32;;;;;;;24.00;15.67;;;28.00;69.40;;;;;;5098148;27;20542;-69
2022/03/28 10:59:01;;;;;;;24.87;12.73;;;27.90;67.50;;;;;;5095121;28;20551;-70
2022/03/28 11:01:30;;;;;;;31.77;14.63;;;28.10;68.80;;;;;;5097355;27;20456;-69
2022/03/28 11:04:06;;;;;;;23.17;13.10;;;27.90;68.70;;;;;;5092292;28;20545;-70
2022/03/28 11:06:49;;;;;;;23.73;14.90;;;28.70;66.30;;;;;;5088516;28;20452;-70
2022/03/28 11:09:34;;;;;;;22.20;13.67;;;29.30;64.50;;;;;;5099308;28;20459;-70
2022/03/28 11:12:04;;;;;;;21.10;13.57;;;29.20;64.20;;;;;;5087157;28;20458;-70
2022/03/28 11:14:42;;;;;;;26.47;14.40;;;28.40;65.50;;;;;;5099209;27;20513;-70
2022/03/28 11:17:17;;;;;;;21.63;13.90;;;27.60;66.40;;;;;;5099985;28;20513;-70
2022/03/28 11:19:58;;;;;;;21.03;13.60;;;26.90;68.10;;;;;;5098525;28;20453;-70
2022/03/28 11:22:47;;;;;;;26.00;17.17;;;27.50;66.50;;;;;;5092975;28;20486;-72
2022/03/28 11:25:34;;;;;;;25.47;14.40;;;27.90;65.90;;;;;;5085203;28;20537;-70
2022/03/28 11:28:07;;;;;;;22.07;14.07;;;29.10;65.60;;;;;;5098136;28;20441;-70
2022/03/28 11:30:36;;;;;;;23.20;14.63;;;29.80;61.70;;;;;;5096847;28;20453;-70
2022/03/28 11:33:08;;;;;;;28.00;14.70;;;29.60;62.40;;;;;;5094665;28;20459;-69
2022/03/28 11:35:35;;;;;;;22.37;15.00;;;29.60;61.30;;;;;;5094441;28;20477;-70
2022/03/28 11:38:03;;;;;;;19.87;12.27;;;29.20;60.90;;;;;;5091062;28;20473;-69
2022/03/28 11:40:39;;;;;;;25.93;15.10;;;29.30;60.00;;;;;;5092711;28;20506;-70
2022/03/28 11:43:06;;;;;;;21.23;14.10;;;28.30;64.00;;;;;;5099631;28;20486;-69
2022/03/28 11:45:33;;;;;;;21.40;15.63;;;28.80;62.50;;;;;;5096749;28;20433;-70
2022/03/28 11:48:01;;;;;;;25.37;14.77;;;28.90;62.60;;;;;;5097375;28;22018;-70
2022/03/28 11:50:29;;;;;;;22.40;12.97;;;29.60;61.20;;;;;;5101957;28;20510;-70
2022/03/28 11:52:57;;;;;;;30.67;15.70;;;28.90;60.70;;;;;;5101088;28;20514;-70
2022/03/28 11:55:26;;;;;;;24.63;14.33;;;29.20;61.70;;;;;;5094933;28;20469;-73
2022/03/28 12:00:40;;;;;;;22.30;13.33;;;29.20;60.50;;;;;;5102231;28;20428;-70
2022/03/28 12:03:10;;;;;;;25.17;13.60;;;29.70;59.50;;;;;;5101993;27;20456;-70
2022/03/28 12:05:39;;;;;;;26.23;14.30;;;30.70;58.30;;;;;;5103776;28;20789;-70
2022/03/28 12:08:09;;;;;;;34.03;15.90;;;31.00;57.30;;;;;;5103897;27;20495;-71
2022/03/28 12:10:37;;;;;;;22.30;14.87;;;30.90;57.40;;;;;;5100464;27;20446;-70
2022/03/28 12:13:07;;;;;;;26.27;14.40;;;30.00;57.70;;;;;;5098087;28;21168;-70
2022/03/28 12:15:35;;;;;;;26.90;15.27;;;30.10;57.90;;;;;;5098706;27;20479;-70
2022/03/28 12:18:05;;;;;;;22.97;14.20;;;28.90;58.50;;;;;;5102473;27;20937;-70
2022/03/28 12:20:33;;;;;;;31.63;16.17;;;28.50;59.50;;;;;;5100347;28;20464;-70
2022/03/28 12:23:01;;;;;;;18.97;12.77;;;29.80;58.00;;;;;;5101882;28;20453;-70
2022/03/28 12:25:30;;;;;;;22.40;15.20;;;30.60;56.70;;;;;;5096567;27;20445;-70
2022/03/28 12:27:58;;;;;;;23.60;15.17;;;29.70;57.30;;;;;;5092453;27;20471;-71
2022/03/28 12:30:32;;;;;;;24.70;14.90;;;30.20;57.20;;;;;;5103114;27;20506;-71
2022/03/28 12:33:08;;;;;;;25.60;14.30;;;29.40;56.20;;;;;;5097881;27;20490;-70
2022/03/28 12:35:34;;;;;;;23.33;15.10;;;29.10;59.40;;;;;;5105196;27;20911;-70
2022/03/28 12:38:04;;;;;;;25.57;14.97;;;29.50;58.00;;;;;;5104677;27;20795;-70
2022/03/28 12:40:32;;;;;;;22.90;13.27;;;29.50;57.60;;;;;;5102123;28;20482;-70
2022/03/28 12:43:02;;;;;;;25.60;16.13;;;29.70;57.30;;;;;;5100309;27;20444;-70
2022/03/28 12:45:30;;;;;;;29.20;15.53;;;29.90;56.20;;;;;;5101848;28;20440;-70